createdAt,value
2017-04-02T00:00:26.605Z,1008.45
2017-04-02T00:01:07.229Z,1008.44
2017-04-02T00:01:47.897Z,1008.42
2017-04-02T00:02:28.497Z,1008.41
2017-04-02T00:03:09.114Z,1008.43
2017-04-02T00:03:49.694Z,1008.48
2017-04-02T00:04:30.295Z,1008.46
2017-04-02T00:05:10.888Z,1008.46
2017-04-02T00:05:51.470Z,1008.47
2017-04-02T00:06:32.058Z,1008.46
2017-04-02T00:07:12.687Z,1008.44
2017-04-02T00:07:53.300Z,1008.46
2017-04-02T00:08:33.882Z,1008.44
2017-04-02T00:09:14.504Z,1008.45
2017-04-02T00:09:55.093Z,1008.46
2017-04-02T00:10:37.620Z,1008.43
2017-04-02T00:11:18.204Z,1008.47
2017-04-02T00:11:59.744Z,1008.49
2017-04-02T00:12:40.313Z,1008.46
2017-04-02T00:13:20.921Z,1008.49
2017-04-02T00:14:01.526Z,1008.47
2017-04-02T00:14:42.117Z,1008.48
2017-04-02T00:15:22.687Z,1008.48
2017-04-02T00:16:03.281Z,1008.49
2017-04-02T00:16:43.885Z,1008.44
2017-04-02T00:17:24.462Z,1008.45
2017-04-02T00:18:05.044Z,1008.46
2017-04-02T00:18:45.647Z,1008.44
2017-04-02T00:19:26.219Z,1008.46
2017-04-02T00:20:07.821Z,1008.44
2017-04-02T00:20:48.397Z,1008.5
2017-04-02T00:21:28.987Z,1008.51
2017-04-02T00:22:10.569Z,1008.55
2017-04-02T00:22:51.139Z,1008.49
2017-04-02T00:23:31.727Z,1008.53
2017-04-02T00:24:12.321Z,1008.53
2017-04-02T00:24:52.876Z,1008.54
2017-04-02T00:25:33.460Z,1008.52
2017-04-02T00:26:15.043Z,1008.57
2017-04-02T00:26:55.620Z,1008.56
2017-04-02T00:27:36.208Z,1008.58
2017-04-02T00:28:16.786Z,1008.56
2017-04-02T00:28:57.369Z,1008.58
2017-04-02T00:29:37.937Z,1008.59
2017-04-02T00:30:19.352Z,1008.6
2017-04-02T00:31:00.831Z,1008.58
2017-04-02T00:31:41.438Z,1008.58
2017-04-02T00:32:22.006Z,1008.57
2017-04-02T00:33:02.588Z,1008.59
2017-04-02T00:33:43.169Z,1008.63
2017-04-02T00:34:23.735Z,1008.61
2017-04-02T00:35:05.331Z,1008.63
2017-04-02T00:35:45.903Z,1008.63
2017-04-02T00:36:26.498Z,1008.62
2017-04-02T00:37:07.079Z,1008.59
2017-04-02T00:37:47.657Z,1008.62
2017-04-02T00:38:28.238Z,1008.64
2017-04-02T00:39:08.804Z,1008.66
2017-04-02T00:39:49.384Z,1008.61
2017-04-02T00:40:29.999Z,1008.62
2017-04-02T00:41:10.613Z,1008.61
2017-04-02T00:41:51.185Z,1008.6
2017-04-02T00:42:31.764Z,1008.63
2017-04-02T00:43:12.333Z,1008.64
2017-04-02T00:43:52.947Z,1008.65
2017-04-02T00:44:33.556Z,1008.69
2017-04-02T00:45:14.132Z,1008.67
2017-04-02T00:45:54.743Z,1008.68
2017-04-02T00:46:35.288Z,1008.69
2017-04-02T00:47:15.886Z,1008.68
2017-04-02T00:47:56.471Z,1008.7
2017-04-02T00:48:37.041Z,1008.73
2017-04-02T00:49:17.629Z,1008.76
2017-04-02T00:49:58.208Z,1008.75
2017-04-02T00:50:38.775Z,1008.8
2017-04-02T00:51:19.360Z,1008.8
2017-04-02T00:51:59.935Z,1008.79
2017-04-02T00:52:40.528Z,1008.82
2017-04-02T00:53:21.103Z,1008.84
2017-04-02T00:54:01.664Z,1008.82
2017-04-02T00:54:42.242Z,1008.82
2017-04-02T00:55:22.820Z,1008.8
2017-04-02T00:56:03.380Z,1008.81
2017-04-02T00:56:43.971Z,1008.79
2017-04-02T00:57:24.546Z,1008.8
2017-04-02T00:58:05.133Z,1008.8
2017-04-02T00:58:45.724Z,1008.83
2017-04-02T00:59:26.293Z,1008.82
2017-04-02T01:00:06.877Z,1008.83
2017-04-02T01:00:47.469Z,1008.82
2017-04-02T01:01:28.027Z,1008.84
2017-04-02T01:02:08.603Z,1008.83
2017-04-02T01:02:49.170Z,1008.83
2017-04-02T01:03:29.739Z,1008.81
2017-04-02T01:04:10.333Z,1008.83
2017-04-02T01:04:50.906Z,1008.83
2017-04-02T01:05:31.485Z,1008.86
2017-04-02T01:06:12.093Z,1008.8
2017-04-02T01:06:52.625Z,1008.81
2017-04-02T01:07:33.210Z,1008.76
2017-04-02T01:08:13.794Z,1008.83
2017-04-02T01:08:54.392Z,1008.77
2017-04-02T01:09:34.964Z,1008.82
2017-04-02T01:10:15.571Z,1008.79
2017-04-02T01:10:56.138Z,1008.81
2017-04-02T01:11:36.729Z,1008.82
2017-04-02T01:12:17.305Z,1008.8
2017-04-02T01:12:57.859Z,1008.85
2017-04-02T01:13:38.425Z,1008.84
2017-04-02T01:14:19.025Z,1008.9
2017-04-02T01:14:59.605Z,1008.86
2017-04-02T01:15:40.170Z,1008.83
2017-04-02T01:16:20.742Z,1008.85
2017-04-02T01:17:01.309Z,1008.91
2017-04-02T01:17:41.912Z,1008.87
2017-04-02T01:18:22.478Z,1008.92
2017-04-02T01:19:03.033Z,1008.9
2017-04-02T01:19:43.627Z,1008.91
2017-04-02T01:20:24.201Z,1008.92
2017-04-02T01:21:04.771Z,1008.92
2017-04-02T01:21:45.342Z,1008.95
2017-04-02T01:22:25.927Z,1008.97
2017-04-02T01:23:06.575Z,1008.96
2017-04-02T01:23:47.177Z,1008.98
2017-04-02T01:24:27.776Z,1008.93
2017-04-02T01:25:08.350Z,1008.96
2017-04-02T01:25:48.946Z,1008.94
2017-04-02T01:26:29.580Z,1008.98
2017-04-02T01:27:10.145Z,1008.93
2017-04-02T01:27:50.730Z,1008.97
2017-04-02T01:28:31.323Z,1008.99
2017-04-02T01:29:11.905Z,1009
2017-04-02T01:29:52.499Z,1008.99
2017-04-02T01:30:33.100Z,1009.01
2017-04-02T01:31:13.714Z,1008.97
2017-04-02T01:31:54.290Z,1009.02
2017-04-02T01:32:34.894Z,1009.01
2017-04-02T01:33:15.509Z,1009.02
2017-04-02T01:33:56.095Z,1009.02
2017-04-02T01:34:36.692Z,1009.03
2017-04-02T01:35:17.281Z,1009.04
2017-04-02T01:35:57.867Z,1009.08
2017-04-02T01:36:38.485Z,1009.06
2017-04-02T01:37:19.076Z,1009.07
2017-04-02T01:37:59.669Z,1009.06
2017-04-02T01:38:40.289Z,1009.06
2017-04-02T01:39:20.872Z,1009.08
2017-04-02T01:40:01.469Z,1009.08
2017-04-02T01:40:42.049Z,1009.09
2017-04-02T01:41:22.652Z,1009.04
2017-04-02T01:42:03.240Z,1009.06
2017-04-02T01:42:43.850Z,1009.06
2017-04-02T01:43:24.437Z,1009.06
2017-04-02T01:44:05.023Z,1009.06
2017-04-02T01:44:45.623Z,1009.07
2017-04-02T01:45:26.210Z,1009.06
2017-04-02T01:46:06.778Z,1009.06
2017-04-02T01:46:47.388Z,1009.07
2017-04-02T01:47:27.993Z,1009.04
2017-04-02T01:48:08.584Z,1009.04
2017-04-02T01:48:49.219Z,1009.07
2017-04-02T01:49:29.841Z,1009.06
2017-04-02T01:50:10.434Z,1009.09
2017-04-02T01:50:51.030Z,1009.1
2017-04-02T01:51:31.604Z,1009.08
2017-04-02T01:52:12.197Z,1009.1
2017-04-02T01:52:52.789Z,1009.12
2017-04-02T01:53:33.397Z,1009.1
2017-04-02T01:54:13.986Z,1009.11
2017-04-02T01:54:54.576Z,1009.08
2017-04-02T01:55:35.149Z,1009.12
2017-04-02T01:56:15.786Z,1009.1
2017-04-02T01:56:56.376Z,1009.12
2017-04-02T01:57:36.961Z,1009.12
2017-04-02T01:58:17.585Z,1009.11
2017-04-02T01:58:58.156Z,1009.1
2017-04-02T01:59:38.756Z,1009.13
2017-04-02T02:00:19.334Z,1009.14
2017-04-02T02:00:59.895Z,1009.14
2017-04-02T02:01:40.481Z,1009.11
2017-04-02T02:02:21.046Z,1009.16
2017-04-02T02:03:01.646Z,1009.13
2017-04-02T02:03:42.255Z,1009.13
2017-04-02T02:04:22.850Z,1009.14
2017-04-02T02:05:03.455Z,1009.16
2017-04-02T02:05:44.072Z,1009.18
2017-04-02T02:06:24.657Z,1009.23
2017-04-02T02:07:05.250Z,1009.24
2017-04-02T02:07:45.827Z,1009.24
2017-04-02T02:08:26.407Z,1009.2
2017-04-02T02:09:06.979Z,1009.25
2017-04-02T02:09:47.562Z,1009.24
2017-04-02T02:10:28.174Z,1009.26
2017-04-02T02:11:08.764Z,1009.23
2017-04-02T02:11:49.339Z,1009.25
2017-04-02T02:12:29.892Z,1009.21
2017-04-02T02:13:10.472Z,1009.22
2017-04-02T02:13:51.070Z,1009.2
2017-04-02T02:14:31.639Z,1009.25
2017-04-02T02:15:12.272Z,1009.15
2017-04-02T02:15:52.840Z,1009.22
2017-04-02T02:16:33.453Z,1009.21
2017-04-02T02:17:14.045Z,1009.21
2017-04-02T02:17:54.649Z,1009.23
2017-04-02T02:18:35.227Z,1009.23
2017-04-02T02:19:15.803Z,1009.24
2017-04-02T02:19:56.381Z,1009.26
2017-04-02T02:20:36.982Z,1009.22
2017-04-02T02:21:17.584Z,1009.2
2017-04-02T02:21:58.162Z,1009.24
2017-04-02T02:22:39.786Z,1009.21
2017-04-02T02:23:20.367Z,1009.25
2017-04-02T02:24:00.965Z,1009.21
2017-04-02T02:24:41.539Z,1009.18
2017-04-02T02:25:22.137Z,1009.22
2017-04-02T02:26:02.711Z,1009.24
2017-04-02T02:26:43.306Z,1009.24
2017-04-02T02:27:23.887Z,1009.25
2017-04-02T02:28:04.474Z,1009.25
2017-04-02T02:28:45.057Z,1009.28
2017-04-02T02:29:25.646Z,1009.29
2017-04-02T02:30:06.256Z,1009.29
2017-04-02T02:30:46.845Z,1009.31
2017-04-02T02:31:27.426Z,1009.31
2017-04-02T02:32:07.996Z,1009.31
2017-04-02T02:32:48.577Z,1009.32
2017-04-02T02:33:29.180Z,1009.35
2017-04-02T02:34:09.756Z,1009.38
2017-04-02T02:34:55.031Z,1009.37
2017-04-02T02:35:35.611Z,1009.39
2017-04-02T02:36:17.194Z,1009.4
2017-04-02T02:36:57.771Z,1009.43
2017-04-02T02:37:38.347Z,1009.47
2017-04-02T02:38:18.949Z,1009.42
2017-04-02T02:38:59.538Z,1009.46
2017-04-02T02:39:40.113Z,1009.53
2017-04-02T02:40:20.683Z,1009.5
2017-04-02T02:41:01.254Z,1009.52
2017-04-02T02:41:41.825Z,1009.53
2017-04-02T02:42:22.405Z,1009.55
2017-04-02T02:43:02.990Z,1009.57
2017-04-02T02:43:43.593Z,1009.51
2017-04-02T02:44:24.183Z,1009.56
2017-04-02T02:45:04.743Z,1009.51
2017-04-02T02:45:45.354Z,1009.56
2017-04-02T02:46:25.945Z,1009.52
2017-04-02T02:47:06.564Z,1009.53
2017-04-02T02:47:47.164Z,1009.52
2017-04-02T02:48:27.728Z,1009.52
2017-04-02T02:49:08.321Z,1009.5
2017-04-02T02:49:48.913Z,1009.49
2017-04-02T02:50:29.505Z,1009.49
2017-04-02T02:51:10.091Z,1009.46
2017-04-02T02:51:50.676Z,1009.47
2017-04-02T02:52:31.276Z,1009.46
2017-04-02T02:53:11.862Z,1009.51
2017-04-02T02:53:52.451Z,1009.48
2017-04-02T02:54:33.144Z,1009.47
2017-04-02T02:55:13.790Z,1009.46
2017-04-02T02:55:54.480Z,1009.46
2017-04-02T02:56:36.113Z,1009.45
2017-04-02T02:57:16.761Z,1009.47
2017-04-02T02:57:57.459Z,1009.44
2017-04-02T02:58:38.145Z,1009.49
2017-04-02T02:59:18.705Z,1009.48
2017-04-02T02:59:59.279Z,1009.48
2017-04-02T03:00:40.853Z,1009.5
2017-04-02T03:01:21.448Z,1009.47
2017-04-02T03:02:02.073Z,1009.51
2017-04-02T03:02:42.632Z,1009.52
2017-04-02T03:03:23.281Z,1009.53
2017-04-02T03:04:04.016Z,1009.52
2017-04-02T03:04:44.618Z,1009.52
2017-04-02T03:05:25.203Z,1009.53
2017-04-02T03:06:05.775Z,1009.55
2017-04-02T03:06:46.367Z,1009.54
2017-04-02T03:07:26.963Z,1009.6
2017-04-02T03:08:07.531Z,1009.62
2017-04-02T03:08:48.148Z,1009.57
2017-04-02T03:09:28.756Z,1009.6
2017-04-02T03:10:09.373Z,1009.59
2017-04-02T03:10:50.001Z,1009.6
2017-04-02T03:11:30.552Z,1009.62
2017-04-02T03:12:11.129Z,1009.64
2017-04-02T03:12:52.703Z,1009.64
2017-04-02T03:13:33.297Z,1009.64
2017-04-02T03:14:13.915Z,1009.63
2017-04-02T03:14:54.507Z,1009.62
2017-04-02T03:15:35.154Z,1009.66
2017-04-02T03:16:17.519Z,1009.69
2017-04-02T03:16:58.109Z,1009.68
2017-04-02T03:17:38.692Z,1009.68
2017-04-02T03:18:19.298Z,1009.68
2017-04-02T03:18:59.880Z,1009.71
2017-04-02T03:19:40.451Z,1009.69
2017-04-02T03:20:21.044Z,1009.69
2017-04-02T03:21:01.648Z,1009.69
2017-04-02T03:21:42.353Z,1009.7
2017-04-02T03:22:22.939Z,1009.72
2017-04-02T03:23:03.557Z,1009.72
2017-04-02T03:23:44.226Z,1009.7
2017-04-02T03:24:24.902Z,1009.72
2017-04-02T03:25:05.493Z,1009.69
2017-04-02T03:25:46.093Z,1009.69
2017-04-02T03:26:26.664Z,1009.69
2017-04-02T03:27:07.258Z,1009.69
2017-04-02T03:27:47.843Z,1009.7
2017-04-02T03:28:28.408Z,1009.69
2017-04-02T03:29:08.965Z,1009.68
2017-04-02T03:29:49.548Z,1009.69
2017-04-02T03:30:30.148Z,1009.72
2017-04-02T03:31:10.716Z,1009.67
2017-04-02T03:31:51.293Z,1009.67
2017-04-02T03:32:31.904Z,1009.67
2017-04-02T03:33:13.437Z,1009.71
2017-04-02T03:33:54.021Z,1009.75
2017-04-02T03:34:35.628Z,1009.72
2017-04-02T03:35:16.207Z,1009.72
2017-04-02T03:35:56.775Z,1009.75
2017-04-02T03:36:37.378Z,1009.73
2017-04-02T03:37:18.002Z,1009.73
2017-04-02T03:37:58.596Z,1009.74
2017-04-02T03:38:39.222Z,1009.72
2017-04-02T03:39:19.810Z,1009.76
2017-04-02T03:40:00.405Z,1009.76
2017-04-02T03:40:40.986Z,1009.71
2017-04-02T03:41:21.565Z,1009.75
2017-04-02T03:42:02.136Z,1009.75
2017-04-02T03:42:42.698Z,1009.73
2017-04-02T03:43:23.312Z,1009.75
2017-04-02T03:44:03.903Z,1009.77
2017-04-02T03:44:44.496Z,1009.75
2017-04-02T03:45:25.098Z,1009.78
2017-04-02T03:46:05.695Z,1009.74
2017-04-02T03:46:46.295Z,1009.76
2017-04-02T03:47:26.881Z,1009.74
2017-04-02T03:48:07.461Z,1009.76
2017-04-02T03:48:48.073Z,1009.77
2017-04-02T03:49:28.664Z,1009.79
2017-04-02T03:50:09.270Z,1009.76
2017-04-02T03:50:49.846Z,1009.75
2017-04-02T03:51:30.417Z,1009.76
2017-04-02T03:52:10.999Z,1009.8
2017-04-02T03:52:51.600Z,1009.77
2017-04-02T03:53:32.198Z,1009.75
2017-04-02T03:54:12.780Z,1009.76
2017-04-02T03:54:53.380Z,1009.77
2017-04-02T03:55:33.970Z,1009.76
2017-04-02T03:56:14.615Z,1009.79
2017-04-02T03:56:55.190Z,1009.81
2017-04-02T03:57:35.773Z,1009.8
2017-04-02T03:58:16.352Z,1009.79
2017-04-02T03:58:56.930Z,1009.88
2017-04-02T03:59:37.498Z,1009.85
2017-04-02T04:00:18.080Z,1009.88
2017-04-02T04:00:58.676Z,1009.87
2017-04-02T04:01:39.266Z,1009.87
2017-04-02T04:02:19.875Z,1009.88
2017-04-02T04:03:00.474Z,1009.89
2017-04-02T04:03:41.064Z,1009.86
2017-04-02T04:04:21.674Z,1009.88
2017-04-02T04:05:02.252Z,1009.88
2017-04-02T04:05:42.828Z,1009.88
2017-04-02T04:06:23.402Z,1009.88
2017-04-02T04:07:03.995Z,1009.87
2017-04-02T04:07:44.638Z,1009.9
2017-04-02T04:08:25.212Z,1009.91
2017-04-02T04:09:05.808Z,1009.94
2017-04-02T04:09:46.387Z,1009.96
2017-04-02T04:10:27.004Z,1009.98
2017-04-02T04:11:07.646Z,1009.95
2017-04-02T04:11:48.241Z,1009.99
2017-04-02T04:12:28.849Z,1010.04
2017-04-02T04:13:09.503Z,1010.03
2017-04-02T04:13:50.185Z,1010.02
2017-04-02T04:14:30.801Z,1010.05
2017-04-02T04:15:11.461Z,1010.07
2017-04-02T04:15:52.119Z,1010.06
2017-04-02T04:16:32.768Z,1010.07
2017-04-02T04:17:13.416Z,1010.1
2017-04-02T04:17:54.077Z,1010.1
2017-04-02T04:18:34.667Z,1010.11
2017-04-02T04:19:15.286Z,1010.12
2017-04-02T04:19:55.938Z,1010.13
2017-04-02T04:20:36.585Z,1010.15
2017-04-02T04:21:17.243Z,1010.12
2017-04-02T04:21:57.895Z,1010.16
2017-04-02T04:22:38.548Z,1010.16
2017-04-02T04:23:19.203Z,1010.18
2017-04-02T04:23:59.793Z,1010.21
2017-04-02T04:24:40.463Z,1010.2
2017-04-02T04:25:21.064Z,1010.23
2017-04-02T04:26:01.708Z,1010.22
2017-04-02T04:26:42.288Z,1010.24
2017-04-02T04:27:22.973Z,1010.27
2017-04-02T04:28:03.585Z,1010.28
2017-04-02T04:28:44.220Z,1010.26
2017-04-02T04:29:24.872Z,1010.27
2017-04-02T04:30:05.441Z,1010.3
2017-04-02T04:30:46.076Z,1010.27
2017-04-02T04:31:26.734Z,1010.29
2017-04-02T04:32:07.380Z,1010.31
2017-04-02T04:32:48.033Z,1010.31
2017-04-02T04:33:28.700Z,1010.32
2017-04-02T04:34:09.341Z,1010.33
2017-04-02T04:34:49.951Z,1010.33
2017-04-02T04:35:30.649Z,1010.32
2017-04-02T04:36:11.231Z,1010.35
2017-04-02T04:36:51.851Z,1010.35
2017-04-02T04:37:32.507Z,1010.38
2017-04-02T04:38:13.126Z,1010.39
2017-04-02T04:38:53.783Z,1010.4
2017-04-02T04:39:34.466Z,1010.42
2017-04-02T04:40:15.050Z,1010.44
2017-04-02T04:40:55.666Z,1010.43
2017-04-02T04:41:36.321Z,1010.39
2017-04-02T04:42:16.924Z,1010.4
2017-04-02T04:42:57.533Z,1010.39
2017-04-02T04:43:38.278Z,1010.42
2017-04-02T04:44:18.859Z,1010.4
2017-04-02T04:44:59.482Z,1010.41
2017-04-02T04:45:40.063Z,1010.4
2017-04-02T04:46:20.636Z,1010.42
2017-04-02T04:47:01.259Z,1010.41
2017-04-02T04:47:41.888Z,1010.44
2017-04-02T04:48:22.472Z,1010.45
2017-04-02T04:49:05.192Z,1010.46
2017-04-02T04:49:45.810Z,1010.49
2017-04-02T04:50:26.384Z,1010.48
2017-04-02T04:51:07.010Z,1010.49
2017-04-02T04:51:47.653Z,1010.5
2017-04-02T04:52:28.254Z,1010.5
2017-04-02T04:53:08.842Z,1010.51
2017-04-02T04:53:49.511Z,1010.54
2017-04-02T04:54:30.162Z,1010.55
2017-04-02T04:55:10.738Z,1010.58
2017-04-02T04:55:51.415Z,1010.59
2017-04-02T04:56:32.025Z,1010.59
2017-04-02T04:57:12.669Z,1010.62
2017-04-02T04:57:53.224Z,1010.59
2017-04-02T04:58:33.824Z,1010.65
2017-04-02T04:59:14.429Z,1010.66
2017-04-02T04:59:55.077Z,1010.66
2017-04-02T05:00:35.652Z,1010.72
2017-04-02T05:01:16.231Z,1010.76
2017-04-02T05:01:56.783Z,1010.72
2017-04-02T05:02:37.383Z,1010.74
2017-04-02T05:03:17.968Z,1010.79
2017-04-02T05:03:58.537Z,1010.72
2017-04-02T05:04:40.159Z,1010.77
2017-04-02T05:05:20.735Z,1010.75
2017-04-02T05:06:01.373Z,1010.76
2017-04-02T05:06:42.015Z,1010.81
2017-04-02T05:07:22.589Z,1010.84
2017-04-02T05:08:03.228Z,1010.84
2017-04-02T05:08:43.879Z,1010.87
2017-04-02T05:09:24.526Z,1010.88
2017-04-02T05:10:05.183Z,1010.91
2017-04-02T05:10:45.835Z,1010.92
2017-04-02T05:11:26.487Z,1010.93
2017-04-02T05:12:07.131Z,1010.94
2017-04-02T05:12:47.790Z,1010.92
2017-04-02T05:13:28.444Z,1010.91
2017-04-02T05:14:09.027Z,1010.92
2017-04-02T05:14:49.696Z,1010.92
2017-04-02T05:15:31.334Z,1010.92
2017-04-02T05:16:11.980Z,1010.97
2017-04-02T05:16:52.551Z,1011.01
2017-04-02T05:17:33.135Z,1011.03
2017-04-02T05:18:13.745Z,1011.01
2017-04-02T05:18:54.306Z,1011.02
2017-04-02T05:19:34.937Z,1011.03
2017-04-02T05:20:15.511Z,1011.02
2017-04-02T05:20:56.099Z,1011.1
2017-04-02T05:21:36.720Z,1011.04
2017-04-02T05:22:17.336Z,1011.05
2017-04-02T05:22:57.925Z,1011.08
2017-04-02T05:23:38.632Z,1011.1
2017-04-02T05:24:19.295Z,1011.11
2017-04-02T05:24:59.947Z,1011.12
2017-04-02T05:25:40.627Z,1011.11
2017-04-02T05:26:21.261Z,1011.15
2017-04-02T05:27:01.909Z,1011.14
2017-04-02T05:27:42.565Z,1011.12
2017-04-02T05:28:23.215Z,1011.12
2017-04-02T05:29:03.816Z,1011.12
2017-04-02T05:29:44.488Z,1011.14
2017-04-02T05:30:25.206Z,1011.14
2017-04-02T05:31:05.828Z,1011.16
2017-04-02T05:31:46.413Z,1011.16
2017-04-02T05:32:27.111Z,1011.15
2017-04-02T05:33:07.806Z,1011.18
2017-04-02T05:33:48.439Z,1011.15
2017-04-02T05:34:29.032Z,1011.16
2017-04-02T05:35:09.614Z,1011.17
2017-04-02T05:35:50.302Z,1011.15
2017-04-02T05:36:30.873Z,1011.17
2017-04-02T05:37:11.518Z,1011.14
2017-04-02T05:37:52.187Z,1011.15
2017-04-02T05:38:32.776Z,1011.16
2017-04-02T05:39:13.471Z,1011.17
2017-04-02T05:39:54.132Z,1011.18
2017-04-02T05:40:34.768Z,1011.13
2017-04-02T05:41:15.459Z,1011.18
2017-04-02T05:41:57.113Z,1011.16
2017-04-02T05:42:37.760Z,1011.23
2017-04-02T05:43:18.421Z,1011.22
2017-04-02T05:43:59.022Z,1011.21
2017-04-02T05:44:39.686Z,1011.22
2017-04-02T05:45:20.329Z,1011.27
2017-04-02T05:46:00.960Z,1011.26
2017-04-02T05:46:41.633Z,1011.25
2017-04-02T05:47:22.284Z,1011.26
2017-04-02T05:48:02.950Z,1011.29
2017-04-02T05:48:43.599Z,1011.24
2017-04-02T05:49:24.184Z,1011.31
2017-04-02T05:50:04.774Z,1011.3
2017-04-02T05:50:45.381Z,1011.31
2017-04-02T05:51:26.003Z,1011.31
2017-04-02T05:52:06.586Z,1011.33
2017-04-02T05:52:47.149Z,1011.36
2017-04-02T05:53:27.806Z,1011.34
2017-04-02T05:54:08.443Z,1011.35
2017-04-02T05:54:49.096Z,1011.33
2017-04-02T05:55:29.761Z,1011.34
2017-04-02T05:56:10.402Z,1011.35
2017-04-02T05:56:52.131Z,1011.36
2017-04-02T05:57:32.732Z,1011.36
2017-04-02T05:58:13.386Z,1011.36
2017-04-02T05:58:54.041Z,1011.38
2017-04-02T05:59:34.607Z,1011.39
2017-04-02T06:00:15.243Z,1011.36
2017-04-02T06:00:55.832Z,1011.44
2017-04-02T06:01:36.444Z,1011.43
2017-04-02T06:02:17.060Z,1011.44
2017-04-02T06:02:57.644Z,1011.46
2017-04-02T06:03:38.304Z,1011.47
2017-04-02T06:04:18.888Z,1011.44
2017-04-02T06:04:59.512Z,1011.4
2017-04-02T06:05:40.169Z,1011.4
2017-04-02T06:06:20.813Z,1011.43
2017-04-02T06:07:01.466Z,1011.4
2017-04-02T06:07:42.115Z,1011.45
2017-04-02T06:08:23.791Z,1011.44
2017-04-02T06:09:04.546Z,1011.43
2017-04-02T06:09:45.211Z,1011.46
2017-04-02T06:10:25.856Z,1011.5
2017-04-02T06:11:06.517Z,1011.42
2017-04-02T06:11:47.160Z,1011.45
2017-04-02T06:12:27.820Z,1011.49
2017-04-02T06:13:08.468Z,1011.5
2017-04-02T06:13:49.126Z,1011.47
2017-04-02T06:14:29.783Z,1011.51
2017-04-02T06:15:10.446Z,1011.47
2017-04-02T06:15:51.096Z,1011.53
2017-04-02T06:16:31.740Z,1011.53
2017-04-02T06:17:12.385Z,1011.51
2017-04-02T06:17:53.034Z,1011.55
2017-04-02T06:18:33.696Z,1011.55
2017-04-02T06:19:14.344Z,1011.59
2017-04-02T06:19:55.001Z,1011.61
2017-04-02T06:20:35.658Z,1011.62
2017-04-02T06:21:16.309Z,1011.63
2017-04-02T06:21:56.997Z,1011.64
2017-04-02T06:22:37.611Z,1011.63
2017-04-02T06:23:18.273Z,1011.64
2017-04-02T06:23:58.921Z,1011.69
2017-04-02T06:24:39.493Z,1011.69
2017-04-02T06:25:20.170Z,1011.67
2017-04-02T06:26:00.780Z,1011.72
2017-04-02T06:26:41.428Z,1011.7
2017-04-02T06:27:22.010Z,1011.73
2017-04-02T06:28:02.698Z,1011.72
2017-04-02T06:28:43.380Z,1011.73
2017-04-02T06:29:24.049Z,1011.73
2017-04-02T06:30:04.692Z,1011.75
2017-04-02T06:30:45.342Z,1011.76
2017-04-02T06:31:25.992Z,1011.76
2017-04-02T06:32:06.671Z,1011.78
2017-04-02T06:32:47.298Z,1011.78
2017-04-02T06:33:27.960Z,1011.79
2017-04-02T06:34:08.609Z,1011.8
2017-04-02T06:34:49.263Z,1011.81
2017-04-02T06:35:30.934Z,1011.83
2017-04-02T06:36:11.591Z,1011.88
2017-04-02T06:36:52.249Z,1011.88
2017-04-02T06:37:32.905Z,1011.89
2017-04-02T06:38:13.551Z,1011.93
2017-04-02T06:38:54.205Z,1011.95
2017-04-02T06:39:34.858Z,1011.93
2017-04-02T06:40:16.534Z,1011.96
2017-04-02T06:40:57.206Z,1011.98
2017-04-02T06:41:37.840Z,1011.99
2017-04-02T06:42:18.495Z,1011.99
2017-04-02T06:42:59.144Z,1011.98
2017-04-02T06:43:40.720Z,1011.98
2017-04-02T06:44:21.329Z,1012.01
2017-04-02T06:45:01.927Z,1012
2017-04-02T06:45:42.579Z,1012.01
2017-04-02T06:46:23.230Z,1012.05
2017-04-02T06:47:03.886Z,1012.07
2017-04-02T06:47:44.534Z,1012.07
2017-04-02T06:48:26.213Z,1012.08
2017-04-02T06:49:07.791Z,1012.05
2017-04-02T06:49:48.441Z,1012.06
2017-04-02T06:50:29.092Z,1012.09
2017-04-02T06:51:09.745Z,1012.11
2017-04-02T06:51:50.398Z,1012.09
2017-04-02T06:52:31.052Z,1012.1
2017-04-02T06:53:11.641Z,1012.11
2017-04-02T06:53:52.253Z,1012.09
2017-04-02T06:54:32.906Z,1012.08
2017-04-02T06:55:13.559Z,1012.11
2017-04-02T06:55:54.213Z,1012.1
2017-04-02T06:56:34.867Z,1012.11
2017-04-02T06:57:15.521Z,1012.12
2017-04-02T06:57:56.173Z,1012.12
2017-04-02T06:58:36.827Z,1012.12
2017-04-02T06:59:17.480Z,1012.1
2017-04-02T06:59:58.129Z,1012.14
2017-04-02T07:00:38.782Z,1012.15
2017-04-02T07:01:19.442Z,1012.17
2017-04-02T07:02:00.087Z,1012.17
2017-04-02T07:02:40.747Z,1012.16
2017-04-02T07:03:21.397Z,1012.14
2017-04-02T07:04:01.974Z,1012.18
2017-04-02T07:04:42.604Z,1012.19
2017-04-02T07:05:23.162Z,1012.19
2017-04-02T07:06:03.759Z,1012.23
2017-04-02T07:06:44.353Z,1012.21
2017-04-02T07:07:25.003Z,1012.22
2017-04-02T07:08:05.553Z,1012.22
2017-04-02T07:08:46.188Z,1012.25
2017-04-02T07:09:26.860Z,1012.26
2017-04-02T07:10:07.516Z,1012.27
2017-04-02T07:10:48.078Z,1012.29
2017-04-02T07:11:28.670Z,1012.27
2017-04-02T07:12:09.268Z,1012.28
2017-04-02T07:12:49.927Z,1012.27
2017-04-02T07:13:30.494Z,1012.31
2017-04-02T07:14:11.106Z,1012.26
2017-04-02T07:14:51.776Z,1012.24
2017-04-02T07:15:32.434Z,1012.24
2017-04-02T07:16:13.090Z,1012.26
2017-04-02T07:16:53.737Z,1012.26
2017-04-02T07:17:34.397Z,1012.22
2017-04-02T07:18:15.967Z,1012.29
2017-04-02T07:18:56.619Z,1012.21
2017-04-02T07:19:37.178Z,1012.23
2017-04-02T07:20:18.820Z,1012.26
2017-04-02T07:20:59.506Z,1012.27
2017-04-02T07:21:40.183Z,1012.28
2017-04-02T07:22:20.719Z,1012.3
2017-04-02T07:23:01.329Z,1012.31
2017-04-02T07:23:42.003Z,1012.3
2017-04-02T07:24:22.667Z,1012.32
2017-04-02T07:25:03.320Z,1012.33
2017-04-02T07:25:43.965Z,1012.38
2017-04-02T07:26:24.535Z,1012.33
2017-04-02T07:27:05.128Z,1012.38
2017-04-02T07:27:45.775Z,1012.37
2017-04-02T07:28:26.430Z,1012.38
2017-04-02T07:29:07.099Z,1012.42
2017-04-02T07:29:47.754Z,1012.39
2017-04-02T07:30:28.404Z,1012.39
2017-04-02T07:31:09.040Z,1012.4
2017-04-02T07:31:49.711Z,1012.39
2017-04-02T07:32:30.346Z,1012.4
2017-04-02T07:33:11.002Z,1012.41
2017-04-02T07:33:51.567Z,1012.41
2017-04-02T07:34:32.267Z,1012.43
2017-04-02T07:35:12.899Z,1012.42
2017-04-02T07:35:53.558Z,1012.41
2017-04-02T07:36:34.223Z,1012.42
2017-04-02T07:37:14.859Z,1012.43
2017-04-02T07:37:55.514Z,1012.38
2017-04-02T07:38:36.172Z,1012.46
2017-04-02T07:39:16.826Z,1012.47
2017-04-02T07:39:57.475Z,1012.49
2017-04-02T07:40:38.129Z,1012.51
2017-04-02T07:41:18.784Z,1012.5
2017-04-02T07:41:59.434Z,1012.52
2017-04-02T07:42:40.090Z,1012.5
2017-04-02T07:43:20.743Z,1012.53
2017-04-02T07:44:01.304Z,1012.56
2017-04-02T07:44:41.947Z,1012.53
2017-04-02T07:45:22.598Z,1012.51
2017-04-02T07:46:03.248Z,1012.56
2017-04-02T07:46:43.903Z,1012.53
2017-04-02T07:47:24.561Z,1012.57
2017-04-02T07:48:05.208Z,1012.58
2017-04-02T07:48:45.864Z,1012.6
2017-04-02T07:49:26.515Z,1012.58
2017-04-02T07:50:07.170Z,1012.61
2017-04-02T07:50:47.826Z,1012.6
2017-04-02T07:51:28.388Z,1012.61
2017-04-02T07:52:09.025Z,1012.63
2017-04-02T07:52:49.676Z,1012.63
2017-04-02T07:53:30.331Z,1012.63
2017-04-02T07:54:10.906Z,1012.66
2017-04-02T07:54:51.488Z,1012.6
2017-04-02T07:55:32.084Z,1012.64
2017-04-02T07:56:12.741Z,1012.66
2017-04-02T07:56:53.356Z,1012.7
2017-04-02T07:57:33.996Z,1012.67
2017-04-02T07:58:14.606Z,1012.66
2017-04-02T07:58:55.251Z,1012.69
2017-04-02T07:59:35.802Z,1012.67
2017-04-02T08:00:16.413Z,1012.7
2017-04-02T08:00:57.123Z,1012.72
2017-04-02T08:01:37.764Z,1012.73
2017-04-02T08:02:18.312Z,1012.73
2017-04-02T08:02:58.914Z,1012.8
2017-04-02T08:03:39.515Z,1012.79
2017-04-02T08:04:20.166Z,1012.8
2017-04-02T08:05:00.721Z,1012.8
2017-04-02T08:05:41.331Z,1012.84
2017-04-02T08:06:21.921Z,1012.86
2017-04-02T08:07:02.575Z,1012.84
2017-04-02T08:07:43.159Z,1012.87
2017-04-02T08:08:23.846Z,1012.91
2017-04-02T08:09:04.427Z,1012.9
2017-04-02T08:09:45.085Z,1012.87
2017-04-02T08:10:25.648Z,1012.92
2017-04-02T08:11:06.240Z,1012.96
2017-04-02T08:11:46.899Z,1012.98
2017-04-02T08:12:27.548Z,1012.98
2017-04-02T08:13:08.196Z,1013
2017-04-02T08:13:48.867Z,1013.02